Time;durP1;ratioP1;P1;durP2;ratioP2;P2;SDS_P1;SDS_P2;PMS_P1;PMS_P2;Temp;Humidity;BMP_temperature;BMP_pressure;BME280_temperature;BME280_humidity;BME280_pressure;Samples;Min_cycle;Max_cycle;Signal;HPM_P1;HPM_P2
2023/04/09 00:02:09;;;;;;;9.68;8.68;;;;;;;10.68;57.21;99936.38;5093295;28;20455;-78
2023/04/09 00:04:35;;;;;;;11.10;8.70;;;;;;;10.86;57.72;99970.50;5093240;28;20027;-78
2023/04/09 00:07:00;;;;;;;9.55;8.15;;;;;;;10.85;57.60;99965.41;5094671;28;20024;-78
2023/04/09 00:09:26;;;;;;;10.13;8.68;;;;;;;10.86;56.95;99964.41;5094465;28;20395;-78
2023/04/09 00:11:51;;;;;;;9.65;8.20;;;;;;;10.32;57.22;99884.97;5094604;28;20020;-78
2023/04/09 00:14:16;;;;;;;10.73;9.63;;;;;;;10.44;57.33;99910.03;5094235;28;20027;-77
2023/04/09 00:16:42;;;;;;;9.75;8.75;;;;;;;10.39;57.64;99899.13;5094174;28;20062;-78
2023/04/09 00:19:07;;;;;;;11.68;9.50;;;;;;;10.41;57.08;99900.66;5094237;28;20012;-78
2023/04/09 00:21:32;;;;;;;9.77;8.70;;;;;;;10.58;57.27;99934.94;5094325;28;20024;-78
2023/04/09 00:23:58;;;;;;;9.60;8.60;;;;;;;10.26;57.47;99886.47;5094246;28;20019;-77
2023/04/09 00:26:23;;;;;;;9.73;8.10;;;;;;;10.73;57.54;99971.03;5093915;28;20101;-78
2023/04/09 00:28:49;;;;;;;11.45;9.23;;;;;;;10.42;57.70;99927.88;5092711;28;20027;-78
2023/04/09 00:31:15;;;;;;;10.48;9.38;;;;;;;9.84;57.58;99824.16;5092786;28;20484;-78
2023/04/09 00:33:40;;;;;;;11.45;8.98;;;;;;;10.68;57.71;99970.72;5093997;28;20103;-78
2023/04/09 00:36:06;;;;;;;11.90;8.88;;;;;;;10.64;57.88;99973.88;5094020;28;20024;-78
2023/04/09 00:38:31;;;;;;;13.10;9.35;;;;;;;10.59;57.77;99965.63;5092770;28;20024;-78
2023/04/09 00:40:57;;;;;;;14.95;9.82;;;;;;;10.50;57.83;99960.34;5093925;28;20101;-78
2023/04/09 00:43:22;;;;;;;11.07;9.45;;;;;;;10.18;58.47;99911.00;5092379;28;20028;-78
2023/04/09 00:45:48;;;;;;;15.50;10.98;;;;;;;10.03;58.06;99930.31;5091902;28;20024;-77
2023/04/09 00:48:15;;;;;;;13.02;10.45;;;;;;;10.26;57.99;99933.13;5093821;28;20078;-78
2023/04/09 00:50:41;;;;;;;14.95;10.75;;;;;;;10.05;58.70;99905.41;5093564;28;20020;-78
2023/04/09 00:53:08;;;;;;;15.85;11.40;;;;;;;10.25;58.38;99966.63;5093430;28;20020;-78
2023/04/09 00:55:34;;;;;;;16.27;11.05;;;;;;;9.47;58.78;99848.34;5093595;28;20017;-78
2023/04/09 00:58:00;;;;;;;16.20;11.65;;;;;;;10.03;58.96;99946.13;5093418;28;20012;-77
2023/04/09 01:00:26;;;;;;;16.00;10.95;;;;;;;9.76;59.03;99891.91;5093540;28;20489;-78
2023/04/09 01:02:54;;;;;;;14.77;11.20;;;;;;;10.07;58.82;99961.47;5093481;28;20445;-78
2023/04/09 01:05:20;;;;;;;16.75;11.30;;;;;;;10.13;59.40;99965.28;5093232;28;20050;-78
2023/04/09 01:07:57;;;;;;;16.83;11.43;;;;;;;10.08;59.39;99968.41;5093197;28;20070;-78
2023/04/09 01:10:41;;;;;;;14.60;11.45;;;;;;;10.01;59.56;99963.94;5093580;28;20484;-78
2023/04/09 01:13:22;;;;;;;16.08;11.60;;;;;;;10.05;59.66;99967.91;5093249;28;20480;-77
2023/04/09 01:15:53;;;;;;;19.50;11.82;;;;;;;9.17;59.45;99830.53;5093221;28;20027;-77
2023/04/09 01:18:33;;;;;;;18.67;11.63;;;;;;;10.06;59.46;99967.75;5093128;28;20019;-77
2023/04/09 01:21:08;;;;;;;15.90;12.55;;;;;;;10.01;59.92;99967.41;5093100;28;20024;-77
2023/04/09 01:23:41;;;;;;;17.35;11.77;;;;;;;9.43;59.24;99883.94;5091656;28;20011;-78
2023/04/09 01:26:11;;;;;;;20.13;12.80;;;;;;;9.37;59.64;99879.31;5092877;28;20044;-78
2023/04/09 01:28:42;;;;;;;18.80;12.75;;;;;;;9.70;59.25;99930.28;5092796;28;20035;-78
2023/04/09 01:31:13;;;;;;;18.53;13.20;;;;;;;9.93;60.00;99985.88;5091357;28;20024;-77
2023/04/09 01:33:41;;;;;;;22.95;13.80;;;;;;;9.28;59.36;99879.44;5091503;28;20090;-78
2023/04/09 01:36:07;;;;;;;21.00;12.63;;;;;;;10.02;59.14;99984.88;5092927;28;20020;-77
2023/04/09 01:38:35;;;;;;;16.65;11.98;;;;;;;9.95;59.59;99970.69;5093377;28;20481;-78
2023/04/09 01:41:01;;;;;;;17.33;12.55;;;;;;;9.83;59.56;99954.38;5092795;28;20081;-77
2023/04/09 01:43:27;;;;;;;18.27;13.70;;;;;;;9.46;59.56;99923.13;5091469;28;20094;-78
2023/04/09 01:45:54;;;;;;;19.80;13.73;;;;;;;9.96;59.52;99985.53;5092855;28;20027;-77
2023/04/09 01:48:19;;;;;;;20.17;13.68;;;;;;;9.92;59.77;99983.38;5091190;28;20020;-77
2023/04/09 01:50:46;;;;;;;18.52;13.05;;;;;;;9.85;59.68;99983.22;5092471;28;20020;-79
2023/04/09 01:53:12;;;;;;;20.45;13.20;;;;;;;9.63;59.81;99962.72;5092130;28;20579;-78
2023/04/09 01:55:37;;;;;;;18.08;13.93;;;;;;;9.31;60.21;99911.56;5092218;28;20022;-78
2023/04/09 01:58:03;;;;;;;17.27;13.63;;;;;;;9.75;59.86;99966.72;5092370;28;20016;-78
2023/04/09 02:00:37;;;;;;;22.23;13.80;;;;;;;9.87;59.87;99976.78;5092405;28;20412;-78
2023/04/09 02:03:10;;;;;;;19.25;14.52;;;;;;;9.35;60.10;99901.53;5091118;28;20051;-78
2023/04/09 02:05:40;;;;;;;23.52;15.07;;;;;;;9.62;59.90;99951.34;5092200;28;20032;-78
2023/04/09 02:08:09;;;;;;;19.30;14.52;;;;;;;9.72;59.99;99965.22;5090820;28;20077;-79
2023/04/09 02:10:38;;;;;;;22.70;15.43;;;;;;;9.82;60.04;99979.09;5092320;28;20028;-78
2023/04/09 02:13:05;;;;;;;25.63;14.82;;;;;;;9.20;59.90;99878.44;5092129;28;20455;-78
2023/04/09 02:15:33;;;;;;;22.30;15.60;;;;;;;9.87;59.58;99975.97;5092131;28;20513;-77
2023/04/09 02:17:58;;;;;;;21.30;14.90;;;;;;;9.46;59.07;99930.22;5092012;28;20077;-78
2023/04/09 02:20:23;;;;;;;22.35;15.05;;;;;;;9.64;59.52;99990.72;5092002;28;20017;-78
2023/04/09 02:22:49;;;;;;;21.13;15.05;;;;;;;8.91;59.41;99902.53;5090492;28;20409;-77
2023/04/09 02:25:14;;;;;;;18.63;15.10;;;;;;;8.94;59.21;99917.22;5090587;28;20036;-78
2023/04/09 02:27:40;;;;;;;21.38;14.02;;;;;;;8.97;59.29;99939.78;5091827;28;20020;-77
2023/04/09 02:30:06;;;;;;;20.83;13.70;;;;;;;9.14;59.60;99962.56;5090435;28;20024;-78
2023/04/09 02:32:31;;;;;;;16.98;13.88;;;;;;;9.32;59.34;100008.09;5091526;28;20027;-78
2023/04/09 02:34:57;;;;;;;19.95;15.00;;;;;;;8.94;59.86;99948.00;5091900;28;20023;-77
2023/04/09 02:37:22;;;;;;;23.30;16.65;;;;;;;9.26;59.74;99994.72;5091998;28;20122;-78
2023/04/09 02:39:47;;;;;;;45.80;28.10;;;;;;;8.73;59.41;99908.84;5092334;28;20401;-77
2023/04/09 02:42:13;;;;;;;34.45;21.23;;;;;;;8.69;59.68;99933.84;5090733;28;20020;-77
2023/04/09 02:44:38;;;;;;;30.75;18.77;;;;;;;8.70;60.35;99930.22;5094461;28;20028;-78
2023/04/09 02:47:04;;;;;;;34.83;19.55;;;;;;;9.04;59.92;99988.19;5093848;28;20058;-79
2023/04/09 02:49:29;;;;;;;39.17;18.92;;;;;;;8.31;60.40;99862.22;5091527;28;20023;-78
2023/04/09 02:51:54;;;;;;;31.88;18.13;;;;;;;8.97;60.73;99966.09;5091501;28;20034;-78
2023/04/09 02:54:20;;;;;;;31.05;17.90;;;;;;;8.24;60.76;99864.66;5091452;28;20098;-78
2023/04/09 02:56:45;;;;;;;30.45;17.75;;;;;;;9.11;60.61;99997.94;5091519;28;20020;-78
2023/04/09 02:59:11;;;;;;;32.05;18.30;;;;;;;8.63;60.53;99924.75;5091535;28;20093;-77
2023/04/09 03:01:36;;;;;;;26.92;17.27;;;;;;;8.61;60.65;99932.00;5091348;28;20098;-78
2023/04/09 03:04:01;;;;;;;35.10;19.35;;;;;;;8.95;60.84;99984.69;5091490;28;20390;-78
2023/04/09 03:06:27;;;;;;;33.15;19.52;;;;;;;8.62;60.63;99912.59;5090120;28;20085;-77
2023/04/09 03:08:52;;;;;;;33.65;17.80;;;;;;;8.94;61.29;99961.97;5094705;28;20099;-78
2023/04/09 03:11:18;;;;;;;34.03;18.75;;;;;;;8.93;60.88;99957.69;5095629;28;20085;-78
2023/04/09 03:13:43;;;;;;;40.17;20.70;;;;;;;9.16;61.07;100002.75;5095533;28;20020;-78
2023/04/09 03:16:09;;;;;;;37.25;21.55;;;;;;;8.54;61.23;99913.38;5095555;28;20052;-77
2023/04/09 03:18:35;;;;;;;37.85;22.80;;;;;;;8.58;61.50;99930.50;5095569;28;20008;-78
2023/04/09 03:21:05;;;;;;;32.33;19.33;;;;;;;8.58;61.73;99934.94;5095428;28;20024;-77
2023/04/09 03:23:33;;;;;;;50.13;22.48;;;;;;;9.00;62.09;100014.03;5095286;28;20020;-77
2023/04/09 03:26:04;;;;;;;31.88;19.23;;;;;;;8.66;62.46;99982.38;5093735;28;20118;-77
2023/04/09 03:28:30;;;;;;;42.75;19.00;;;;;;;8.40;62.50;99948.16;5095032;28;20031;-77
2023/04/09 03:30:55;;;;;;;34.03;18.55;;;;;;;8.49;62.75;99954.28;5095035;28;20021;-78
2023/04/09 03:33:20;;;;;;;32.08;19.00;;;;;;;8.66;62.58;99989.44;5095136;28;20038;-77
2023/04/09 03:35:46;;;;;;;28.48;16.92;;;;;;;8.93;62.79;100023.53;5094953;28;20488;-78
2023/04/09 03:38:11;;;;;;;31.83;18.67;;;;;;;8.64;62.73;99981.69;5095085;28;20016;-77
2023/04/09 03:40:37;;;;;;;30.98;18.10;;;;;;;8.62;62.49;99956.50;5095058;28;20078;-77
2023/04/09 03:43:03;;;;;;;28.80;16.75;;;;;;;8.71;62.34;99958.22;5095155;28;20020;-78
2023/04/09 03:45:29;;;;;;;25.95;15.77;;;;;;;9.00;62.32;100000.03;5094961;28;20103;-77
2023/04/09 03:47:54;;;;;;;24.25;15.20;;;;;;;9.00;62.09;99989.50;5094877;28;20027;-78
2023/04/09 03:50:20;;;;;;;21.52;14.20;;;;;;;8.88;62.22;99981.84;5094826;28;20439;-77
2023/04/09 03:52:46;;;;;;;23.55;15.82;;;;;;;8.39;62.20;99914.94;5094654;28;20012;-78
2023/04/09 03:55:11;;;;;;;27.98;16.27;;;;;;;8.79;62.10;99956.44;5094771;28;20024;-78
2023/04/09 03:57:36;;;;;;;32.53;17.95;;;;;;;8.96;62.40;100003.97;5094818;28;20485;-78
2023/04/09 04:00:02;;;;;;;44.33;21.58;;;;;;;8.79;62.79;99990.66;5093308;28;20026;-78
2023/04/09 04:02:32;;;;;;;41.50;22.23;;;;;;;8.99;62.90;100032.63;5094481;28;20016;-78
2023/04/09 04:05:00;;;;;;;47.65;21.98;;;;;;;8.07;63.14;99959.34;5094525;28;20020;-77
2023/04/09 04:07:26;;;;;;;52.38;23.42;;;;;;;8.18;63.00;99912.63;5094487;28;20028;-78
2023/04/09 04:09:51;;;;;;;47.13;22.33;;;;;;;8.34;63.22;99937.41;5094533;28;20069;-78
2023/04/09 04:12:16;;;;;;;52.83;23.65;;;;;;;8.69;62.88;99975.97;5094248;28;20028;-78
2023/04/09 04:14:42;;;;;;;51.28;23.48;;;;;;;8.94;62.83;100003.28;5093179;28;20059;-78
2023/04/09 04:17:07;;;;;;;49.33;21.90;;;;;;;8.78;62.38;99986.38;5092989;28;20028;-77
2023/04/09 04:19:33;;;;;;;47.80;22.48;;;;;;;9.12;62.73;100025.13;5094330;28;20111;-77
2023/04/09 04:21:58;;;;;;;51.05;22.35;;;;;;;8.77;62.34;99971.56;5094759;28;20020;-77
2023/04/09 04:24:24;;;;;;;64.47;25.42;;;;;;;8.88;62.94;99989.72;5094435;28;20028;-77
2023/04/09 04:26:49;;;;;;;71.47;25.67;;;;;;;9.02;62.94;100006.78;5093943;28;20067;-77
2023/04/09 04:29:14;;;;;;;78.60;27.80;;;;;;;8.68;62.52;99971.69;5094027;28;20106;-77
2023/04/09 04:31:40;;;;;;;82.40;30.60;;;;;;;8.83;63.04;99994.66;5094264;28;20020;-77
2023/04/09 04:34:05;;;;;;;89.07;30.20;;;;;;;9.14;63.13;100036.31;5094302;28;20394;-77
2023/04/09 04:36:30;;;;;;;87.10;30.15;;;;;;;8.60;63.08;99946.13;5094173;28;20028;-77
2023/04/09 04:38:56;;;;;;;87.13;30.52;;;;;;;8.78;62.83;99959.22;5094031;28;20488;-78
2023/04/09 04:41:21;;;;;;;90.32;30.67;;;;;;;8.86;62.87;99962.72;5093959;28;20020;-77
2023/04/09 04:43:47;;;;;;;80.70;29.88;;;;;;;8.89;62.98;99961.59;5094210;28;20027;-77
2023/04/09 04:46:12;;;;;;;81.63;29.05;;;;;;;8.85;62.49;99968.97;5092944;28;20028;-77
2023/04/09 04:48:38;;;;;;;87.07;30.33;;;;;;;8.78;62.57;99961.88;5093915;28;20382;-77
2023/04/09 04:51:03;;;;;;;73.82;27.08;;;;;;;9.34;62.80;100039.53;5092390;28;20386;-78
2023/04/09 04:53:29;;;;;;;72.85;27.90;;;;;;;8.87;62.73;99966.19;5091989;28;20114;-77
2023/04/09 04:55:54;;;;;;;70.68;27.63;;;;;;;8.13;62.34;99898.25;5092339;28;20077;-78
2023/04/09 04:58:19;;;;;;;73.32;28.38;;;;;;;9.27;62.95;100030.63;5093323;28;20016;-78
2023/04/09 05:00:45;;;;;;;86.13;31.17;;;;;;;9.06;62.96;99999.41;5093623;28;20051;-77
2023/04/09 05:03:11;;;;;;;78.35;29.55;;;;;;;9.09;62.78;100012.25;5093749;28;20098;-78
2023/04/09 05:05:36;;;;;;;77.47;28.88;;;;;;;9.21;62.92;100029.44;5093621;28;20028;-78
2023/04/09 05:08:02;;;;;;;68.05;26.98;;;;;;;8.77;62.68;99965.47;5092080;28;20027;-78
2023/04/09 05:10:27;;;;;;;77.00;29.88;;;;;;;9.33;62.58;100038.72;5093471;28;20090;-77
2023/04/09 05:12:53;;;;;;;68.20;26.00;;;;;;;9.44;62.45;100066.59;5093320;28;20024;-78
2023/04/09 05:15:18;;;;;;;83.70;28.27;;;;;;;8.89;62.50;99959.78;5093195;28;20035;-77
2023/04/09 05:17:44;;;;;;;87.25;30.58;;;;;;;9.45;62.61;100058.53;5093316;28;20028;-77
2023/04/09 05:20:10;;;;;;;80.30;29.38;;;;;;;8.90;62.21;99968.50;5093123;28;20496;-77
2023/04/09 05:22:35;;;;;;;79.38;29.38;;;;;;;9.14;62.36;99983.63;5092749;28;20496;-77
2023/04/09 05:25:02;;;;;;;82.13;29.92;;;;;;;9.64;62.20;100065.38;5092738;28;20063;-77
2023/04/09 05:27:27;;;;;;;72.93;27.88;;;;;;;9.29;62.63;100012.84;5092714;28;20103;-77
2023/04/09 05:29:53;;;;;;;68.97;29.30;;;;;;;9.39;62.33;100024.91;5091044;28;20116;-77
2023/04/09 05:32:19;;;;;;;60.50;28.00;;;;;;;9.56;62.63;100062.69;5091545;28;20023;-77
2023/04/09 05:34:44;;;;;;;65.68;29.45;;;;;;;9.14;62.61;99988.91;5092754;28;20071;-78
2023/04/09 05:37:10;;;;;;;74.30;29.33;;;;;;;9.62;62.17;100048.88;5092863;28;20027;-78
2023/04/09 05:39:35;;;;;;;70.65;28.73;;;;;;;9.04;62.35;99952.16;5092997;28;20023;-78
2023/04/09 05:42:01;;;;;;;65.82;26.65;;;;;;;9.81;62.05;100068.91;5091417;28;20481;-78
2023/04/09 05:44:26;;;;;;;62.85;27.58;;;;;;;9.70;61.83;100042.84;5092692;28;20016;-77
2023/04/09 05:46:51;;;;;;;78.10;30.25;;;;;;;9.73;62.17;100042.53;5092509;28;20441;-77
2023/04/09 05:49:17;;;;;;;78.72;31.73;;;;;;;9.53;61.61;100003.22;5092382;28;20024;-77
2023/04/09 05:51:42;;;;;;;73.72;31.75;;;;;;;9.63;61.66;100003.06;5090935;28;20020;-78
2023/04/09 05:54:08;;;;;;;55.08;26.65;;;;;;;10.05;61.38;100071.63;5092272;28;20019;-77
2023/04/09 05:56:34;;;;;;;50.67;23.67;;;;;;;9.82;61.31;100020.47;5092602;28;20016;-77
2023/04/09 05:58:59;;;;;;;45.05;22.23;;;;;;;10.10;61.26;100065.84;5092362;28;20031;-77
2023/04/09 06:01:24;;;;;;;39.67;21.60;;;;;;;9.55;61.41;99987.25;5092321;28;20489;-78
2023/04/09 06:03:50;;;;;;;45.03;22.27;;;;;;;9.66;61.11;100000.16;5092309;28;20031;-77
2023/04/09 06:06:15;;;;;;;37.50;19.92;;;;;;;10.03;60.94;100062.22;5091049;28;20107;-78
2023/04/09 06:08:41;;;;;;;38.17;21.63;;;;;;;9.35;61.10;99922.63;5092049;28;20095;-77
2023/04/09 06:11:10;;;;;;;28.80;18.45;;;;;;;9.86;60.64;100005.97;5092001;28;20024;-78
2023/04/09 06:13:36;;;;;;;32.60;21.25;;;;;;;9.81;60.63;100014.38;5091951;28;20024;-78
2023/04/09 06:16:09;;;;;;;28.52;18.45;;;;;;;9.60;60.95;99986.75;5091846;28;20028;-78
2023/04/09 06:18:35;;;;;;;28.85;19.95;;;;;;;9.74;61.10;100013.34;5091809;28;20024;-78
2023/04/09 06:21:02;;;;;;;30.52;19.67;;;;;;;10.09;60.86;100067.66;5092049;28;20024;-77
2023/04/09 06:23:28;;;;;;;32.15;20.05;;;;;;;9.68;60.71;100011.38;5092010;28;20016;-78
2023/04/09 06:25:53;;;;;;;29.02;20.55;;;;;;;9.36;60.94;99966.44;5091748;28;20482;-78
2023/04/09 06:28:19;;;;;;;28.98;19.98;;;;;;;9.57;60.44;100009.81;5091712;28;20059;-77
2023/04/09 06:30:45;;;;;;;27.20;20.23;;;;;;;9.54;60.54;100004.03;5092057;28;20023;-77
2023/04/09 06:33:11;;;;;;;29.23;20.05;;;;;;;9.84;60.46;100053.59;5092250;28;20511;-77
2023/04/09 06:35:36;;;;;;;30.65;20.38;;;;;;;9.72;60.68;100017.97;5092080;28;20051;-77
2023/04/09 06:38:02;;;;;;;28.90;21.40;;;;;;;9.57;60.58;99980.81;5090465;28;20012;-78
2023/04/09 06:40:27;;;;;;;28.48;22.92;;;;;;;9.75;60.49;100024.72;5091946;28;20111;-77
2023/04/09 06:42:53;;;;;;;29.88;21.65;;;;;;;10.18;60.51;100092.25;5091254;28;20058;-78
2023/04/09 06:45:18;;;;;;;31.50;23.23;;;;;;;10.19;60.74;100104.47;5091744;28;20035;-77
2023/04/09 06:47:43;;;;;;;37.08;23.77;;;;;;;9.72;60.61;100006.59;5091785;28;20030;-78
2023/04/09 06:50:09;;;;;;;34.95;23.50;;;;;;;9.66;60.61;99989.59;5091644;28;20028;-78
2023/04/09 06:52:35;;;;;;;52.50;27.10;;;;;;;9.50;60.22;99953.47;5091569;28;20118;-78
2023/04/09 06:55:00;;;;;;;58.50;28.98;;;;;;;9.86;59.88;99998.06;5091708;28;20020;-78
2023/04/09 06:57:26;;;;;;;72.88;31.50;;;;;;;9.84;59.68;99987.66;5091275;28;20102;-78
2023/04/09 06:59:51;;;;;;;67.15;30.50;;;;;;;10.08;60.22;100009.78;5091467;28;20507;-78
2023/04/09 07:02:16;;;;;;;70.70;31.00;;;;;;;10.01;60.03;100000.88;5091521;28;20087;-78
2023/04/09 07:04:42;;;;;;;70.10;30.08;;;;;;;10.39;59.67;100058.34;5091335;28;20547;-77
2023/04/09 07:07:07;;;;;;;49.03;25.30;;;;;;;10.41;59.86;100055.56;5091271;28;20500;-77
2023/04/09 07:09:32;;;;;;;53.53;27.95;;;;;;;9.88;59.46;99980.25;5091286;28;20016;-78
2023/04/09 07:11:58;;;;;;;41.90;22.70;;;;;;;10.42;60.06;100063.31;5091373;28;20020;-77
2023/04/09 07:14:23;;;;;;;29.95;19.40;;;;;;;10.08;60.00;99999.22;5091419;28;20022;-78
2023/04/09 07:16:49;;;;;;;26.00;18.75;;;;;;;10.22;59.38;100032.09;5091449;28;20016;-78
2023/04/09 07:19:14;;;;;;;23.83;17.92;;;;;;;10.31;58.99;100007.34;5091331;28;20103;-79
2023/04/09 07:21:40;;;;;;;24.95;19.15;;;;;;;10.66;58.83;100062.50;5091647;28;20043;-78
2023/04/09 07:24:06;;;;;;;20.33;17.05;;;;;;;10.78;59.39;100068.25;5091445;28;20028;-78
2023/04/09 07:26:32;;;;;;;19.85;15.77;;;;;;;10.41;58.71;100010.69;5089702;28;20082;-78
2023/04/09 07:28:58;;;;;;;17.08;14.30;;;;;;;10.95;58.48;100077.81;5090950;28;20099;-77
2023/04/09 07:31:23;;;;;;;17.50;13.77;;;;;;;11.04;58.34;100070.69;5089739;28;20113;-78
2023/04/09 07:33:49;;;;;;;15.20;13.60;;;;;;;10.89;57.88;100035.38;5091046;28;20027;-77
2023/04/09 07:36:14;;;;;;;14.05;11.60;;;;;;;11.11;58.00;100061.09;5091121;28;20013;-78
2023/04/09 07:38:40;;;;;;;14.07;12.68;;;;;;;11.25;57.98;100083.41;5091027;28;20095;-78
2023/04/09 07:41:05;;;;;;;14.35;12.95;;;;;;;11.35;57.15;100069.00;5091292;28;20035;-78
2023/04/09 07:43:31;;;;;;;15.10;12.18;;;;;;;11.16;57.59;100050.06;5090975;28;20516;-78
2023/04/09 07:45:56;;;;;;;12.73;11.43;;;;;;;11.12;56.80;100015.19;5091334;28;20482;-78
2023/04/09 07:48:22;;;;;;;11.55;10.38;;;;;;;11.48;57.49;100072.91;5090974;28;20386;-78
2023/04/09 07:50:47;;;;;;;13.02;11.73;;;;;;;11.46;56.79;100055.41;5090125;28;20576;-78
2023/04/09 07:53:12;;;;;;;9.85;8.95;;;;;;;11.37;56.27;100021.25;5089998;28;20050;-78
2023/04/09 07:55:39;;;;;;;13.18;10.40;;;;;;;11.85;56.02;100086.34;5094799;28;20027;-78
2023/04/09 07:58:05;;;;;;;11.85;10.65;;;;;;;11.62;56.47;100035.19;5094887;28;20050;-78
2023/04/09 08:00:30;;;;;;;10.48;9.40;;;;;;;11.71;55.77;100034.13;5095133;28;20032;-79
2023/04/09 08:02:56;;;;;;;10.32;9.32;;;;;;;11.54;55.66;100008.78;5093436;28;20027;-78
2023/04/09 08:05:22;;;;;;;12.38;11.18;;;;;;;11.92;55.38;100087.34;5094664;28;20020;-78
2023/04/09 08:07:47;;;;;;;11.45;10.25;;;;;;;11.67;56.14;100043.41;5094636;28;20081;-79
2023/04/09 08:10:15;;;;;;;10.25;9.25;;;;;;;11.98;55.90;100076.06;5094518;28;20024;-78
2023/04/09 08:12:40;;;;;;;10.60;9.18;;;;;;;11.86;54.84;100048.31;5094549;28;20020;-78
2023/04/09 08:15:06;;;;;;;10.13;9.13;;;;;;;12.03;55.07;100063.13;5094554;28;20020;-78
2023/04/09 08:17:32;;;;;;;11.48;10.48;;;;;;;12.14;55.09;100063.72;5094427;28;20027;-78
2023/04/09 08:19:57;;;;;;;11.30;10.10;;;;;;;12.20;54.41;100061.19;5094534;28;20020;-77
2023/04/09 08:22:22;;;;;;;10.52;9.57;;;;;;;12.01;54.38;99995.47;5092942;28;20020;-78
2023/04/09 08:24:52;;;;;;;10.48;9.38;;;;;;;12.21;53.37;99994.00;5094025;28;20111;-79
2023/04/09 08:27:17;;;;;;;11.50;10.40;;;;;;;12.17;53.19;99962.78;5094380;28;20024;-78
2023/04/09 08:29:43;;;;;;;10.38;9.30;;;;;;;12.75;52.79;100032.81;5094312;28;20039;-79
2023/04/09 08:32:08;;;;;;;10.80;9.80;;;;;;;13.14;53.10;100089.06;5092966;28;20024;-78
2023/04/09 08:34:34;;;;;;;9.88;8.77;;;;;;;12.60;52.77;100006.25;5094303;28;20509;-79
2023/04/09 08:36:59;;;;;;;10.18;9.23;;;;;;;12.96;52.66;100065.56;5092800;28;20024;-78
2023/04/09 08:39:24;;;;;;;10.52;9.45;;;;;;;12.85;51.99;100015.66;5093907;28;20012;-78
2023/04/09 08:41:51;;;;;;;11.88;10.75;;;;;;;13.46;51.77;100085.31;5094192;28;20024;-79
2023/04/09 08:44:17;;;;;;;11.15;10.07;;;;;;;13.63;51.54;100078.78;5094197;28;20039;-78
2023/04/09 08:46:43;;;;;;;12.25;11.15;;;;;;;13.52;51.02;100033.34;5094028;28;20028;-77
2023/04/09 08:49:09;;;;;;;10.70;9.70;;;;;;;13.62;50.57;100057.75;5093919;28;20471;-78
2023/04/09 08:51:35;;;;;;;10.85;9.90;;;;;;;13.77;50.44;100063.03;5093865;28;20059;-79
2023/04/09 08:54:01;;;;;;;10.38;9.48;;;;;;;13.77;50.22;100032.00;5093745;28;20023;-78
2023/04/09 08:56:27;;;;;;;10.23;9.25;;;;;;;14.20;49.65;100075.41;5093870;28;20073;-78
2023/04/09 08:58:55;;;;;;;10.20;9.20;;;;;;;14.28;49.16;100079.78;5093844;28;20063;-78
2023/04/09 09:01:25;;;;;;;9.95;8.95;;;;;;;14.42;48.85;100073.59;5093754;28;20031;-78
2023/04/09 09:03:54;;;;;;;10.13;9.23;;;;;;;14.52;48.41;100068.78;5093702;28;20176;-78
2023/04/09 09:06:21;;;;;;;10.13;9.13;;;;;;;14.28;48.32;99997.44;5091119;28;20035;-77
2023/04/09 09:08:59;;;;;;;9.55;8.75;;;;;;;14.56;47.87;100006.28;5091945;28;20495;-79
2023/04/09 09:11:25;;;;;;;10.20;9.27;;;;;;;14.84;48.09;100034.69;5093568;28;20099;-77
2023/04/09 09:13:57;;;;;;;13.70;12.35;;;;;;;14.99;48.12;100040.78;5093650;28;20028;-78
2023/04/09 09:16:22;;;;;;;8.23;7.55;;;;;;;14.78;47.09;100003.56;5093414;28;20450;-79
2023/04/09 09:18:48;;;;;;;8.48;7.70;;;;;;;14.60;46.91;99962.38;5093123;28;20035;-78
2023/04/09 09:21:16;;;;;;;9.63;8.77;;;;;;;15.24;46.86;100049.94;5091863;28;20028;-78
2023/04/09 09:23:43;;;;;;;9.05;8.25;;;;;;;14.86;46.66;99979.50;5093366;28;20024;-78
2023/04/09 09:26:16;;;;;;;10.65;9.70;;;;;;;15.40;46.76;100032.81;5092761;28;20093;-79
2023/04/09 09:28:42;;;;;;;9.75;8.85;;;;;;;15.38;46.54;100005.59;5092814;28;20028;-78
2023/04/09 09:31:08;;;;;;;11.35;10.27;;;;;;;15.71;46.00;100051.03;5093154;28;20081;-79
2023/04/09 09:33:35;;;;;;;11.95;10.48;;;;;;;15.02;46.48;99995.19;5092937;28;20028;-78
2023/04/09 09:36:02;;;;;;;16.15;14.52;;;;;;;15.21;46.27;99988.31;5092872;28;20024;-79
2023/04/09 09:38:28;;;;;;;17.23;15.43;;;;;;;15.64;46.26;100039.53;5092666;28;20024;-79
2023/04/09 09:40:54;;;;;;;17.85;16.13;;;;;;;15.79;45.98;100042.88;5092792;28;20028;-79
2023/04/09 09:43:20;;;;;;;20.02;17.98;;;;;;;15.90;45.60;100049.47;5092718;28;20050;-79
2023/04/09 09:45:46;;;;;;;21.92;19.67;;;;;;;16.08;44.87;100038.25;5092689;28;20078;-79
2023/04/09 09:48:11;;;;;;;24.15;21.55;;;;;;;16.26;44.13;100029.66;5092500;28;20024;-79
2023/04/09 09:50:40;;;;;;;23.77;21.38;;;;;;;16.11;43.84;99990.72;5092562;28;20424;-79
2023/04/09 09:53:07;;;;;;;21.58;19.27;;;;;;;16.10;43.21;99926.97;5092164;28;20023;-79
2023/04/09 09:55:48;;;;;;;22.65;20.35;;;;;;;16.92;41.41;100014.53;5070794;28;20505;-79
2023/04/09 09:58:22;;;;;;;25.38;20.48;;;;;;;16.55;41.00;99938.69;5072192;28;20024;-79
2023/04/09 10:00:50;;;;;;;21.48;19.38;;;;;;;16.83;42.04;99963.28;5072075;28;20029;-79
2023/04/09 10:03:24;;;;;;;20.35;18.40;;;;;;;16.65;41.65;99883.13;5070920;28;20055;-78
2023/04/09 10:05:52;;;;;;;22.20;19.90;;;;;;;17.67;41.42;100018.47;5071904;28;20081;-79
2023/04/09 10:08:19;;;;;;;16.88;15.27;;;;;;;17.14;41.17;99919.91;5071809;28;20111;-79
2023/04/09 10:10:45;;;;;;;17.67;15.98;;;;;;;17.76;41.08;100000.34;5070540;28;20489;-78
2023/04/09 10:13:20;;;;;;;18.27;16.58;;;;;;;17.41;40.93;99911.78;5071649;28;20024;-79
2023/04/09 10:15:46;;;;;;;18.65;17.00;;;;;;;17.96;40.62;100006.44;5070316;28;20028;-79
2023/04/09 10:18:13;;;;;;;17.48;15.85;;;;;;;17.82;40.29;99961.28;5071718;28;20021;-79
2023/04/09 10:20:47;;;;;;;16.88;15.38;;;;;;;17.99;39.92;99957.09;5071730;28;20524;-78
2023/04/09 10:23:26;;;;;;;18.08;16.42;;;;;;;18.27;38.20;99957.50;5071708;28;20025;-79
2023/04/09 10:25:52;;;;;;;19.30;17.40;;;;;;;17.97;39.35;99905.72;5070134;28;20044;-79
2023/04/09 10:28:18;;;;;;;17.25;15.75;;;;;;;18.39;39.30;99954.94;5071326;28;20050;-79
2023/04/09 10:30:43;;;;;;;12.80;11.63;;;;;;;18.30;38.54;99932.19;5070171;28;20036;-79
2023/04/09 10:33:15;;;;;;;11.13;9.93;;;;;;;18.87;37.85;99989.94;5071646;28;20024;-79
2023/04/09 10:35:42;;;;;;;12.38;11.27;;;;;;;18.58;37.61;99931.72;5070232;28;20038;-79
2023/04/09 10:38:09;;;;;;;10.30;9.35;;;;;;;18.91;37.20;99953.66;5071536;28;20020;-79
2023/04/09 10:40:46;;;;;;;9.90;8.60;;;;;;;18.94;34.89;99963.91;5071536;28;20093;-79
2023/04/09 10:43:12;;;;;;;8.35;7.57;;;;;;;19.20;36.16;99972.69;5071773;28;20036;-78
2023/04/09 10:45:40;;;;;;;8.30;7.53;;;;;;;19.51;35.87;99974.41;5071468;28;20047;-79
2023/04/09 10:48:11;;;;;;;7.95;7.25;;;;;;;19.70;34.94;99970.69;5071162;28;20036;-79
2023/04/09 10:50:37;;;;;;;9.15;8.35;;;;;;;19.27;34.98;99885.91;5069969;28;20214;-79
2023/04/09 10:53:03;;;;;;;8.15;7.47;;;;;;;19.79;34.88;99961.28;5069834;28;20540;-79
2023/04/09 10:55:37;;;;;;;9.27;8.45;;;;;;;19.51;33.88;99894.88;5071240;28;20052;-78
2023/04/09 10:58:07;;;;;;;8.70;7.90;;;;;;;19.20;34.67;99879.00;5071241;28;20489;-78
2023/04/09 11:00:37;;;;;;;7.40;6.80;;;;;;;19.25;34.59;99860.41;5071326;28;20028;-79
2023/04/09 11:03:03;;;;;;;7.82;7.03;;;;;;;20.02;34.38;99938.25;5071281;28;20037;-78
2023/04/09 11:05:33;;;;;;;7.82;7.03;;;;;;;19.77;33.67;99879.50;5070078;28;20032;-78
2023/04/09 11:08:13;;;;;;;8.05;7.35;;;;;;;19.59;34.01;99867.78;5071159;28;20032;-79
2023/04/09 11:10:46;;;;;;;8.77;6.03;;;;;;;20.10;34.21;99933.41;5071225;28;20064;-79
2023/04/09 11:13:14;;;;;;;4.88;4.47;;;;;;;19.79;34.16;99864.81;5071172;28;20036;-78
2023/04/09 11:15:40;;;;;;;4.70;4.30;;;;;;;20.06;34.16;99923.34;5069937;28;20024;-77
2023/04/09 11:18:05;;;;;;;5.43;4.93;;;;;;;19.94;34.14;99900.03;5071053;28;20029;-79
2023/04/09 11:20:33;;;;;;;4.82;3.78;;;;;;;20.13;33.69;99918.72;5071038;28;20570;-79